Disclaimer

Please do not use the information listed here in-flight or in-navigation, as they are not provided to us by the airports but are provided by volunteers, so they might be outdated.

Search


Regions


Airport information page

No radio frequency information is available.

Airport informations:
Latitude: 29° 43' 09.18" N
Longitude: 106° 38' 30.04" E
Elevation: 1365 feet - 416 meters
Operating hours: N/A
Operating agency: Civil government, landing fees and diplomatic clearance may be required
Timezone: UTC+8
Fuel: Jet fuel avaiable but type is unknown.

Runway information:
02/20 - 10499 x 148 feet< - >3200 x 45 meters

Recent METARs:
ZUCK 211800Z 14002MPS 2800 BR FEW006 10/09 Q1029 NOSIG
ZUCK 211800Z 14002MPS 2800 BR FEW006 10/09 Q1029 NOSIG
ZUCK 211900Z 00000MPS 2800 BR FEW006 10/09 Q1028 NOSIG

Airport on the map: